Hythe, Canada
Current Conditions -  °F | °C
As of 8:00 AM on Wednesday 26 Nov 2014 (Local Time) from CYQU Reporting Station
Moderate Fog Moderate Fog  
Wind Chill: -6°   Ceiling: Unl
Heat Index: -6°   Visibility: 0.37mi
Dew Point: -11°   Wind: 0mph
Humidity: 77%   Direction: NA
Pressure: 30.13"   Gusts: NA
Location:  55.32°N, 119.57°W
Report Text: CYQU 261500Z 00000KT 3/8SM FZFG SKC M21/M24 A3013 RMK FG7 SLP265
Loading
Personal Weather Stations






























Interactive Weather Map New forecast layout! Learn more

10-Day Weather Forecast

Advertisements
Track Severe Weather on mobile